createdAt,value
2023-04-20T00:00:50.594Z,6.83
2023-04-20T00:03:21.759Z,6.77
2023-04-20T00:05:50.496Z,5.23
2023-04-20T00:08:18.724Z,3.97
2023-04-20T00:10:46.757Z,6.50
2023-04-20T00:13:14.846Z,5.93
2023-04-20T00:15:42.604Z,6.73
2023-04-20T00:18:10.664Z,7.63
2023-04-20T00:20:40.149Z,9.17
2023-04-20T00:23:08.117Z,5.50
2023-04-20T00:25:36.080Z,10.83
2023-04-20T00:28:04.195Z,5.73
2023-04-20T00:30:32.088Z,5.43
2023-04-20T00:33:00.120Z,7.23
2023-04-20T00:35:28.211Z,6.40
2023-04-20T00:37:57.466Z,6.50
2023-04-20T00:40:25.376Z,8.33
2023-04-20T00:42:53.158Z,7.27
2023-04-20T00:45:22.384Z,6.00
2023-04-20T00:47:50.325Z,5.30
2023-04-20T00:50:18.640Z,5.47
2023-04-20T00:52:47.060Z,6.10
2023-04-20T00:55:16.246Z,7.07
2023-04-20T00:57:44.423Z,8.07
2023-04-20T01:00:13.230Z,4.80
2023-04-20T01:02:41.506Z,8.83
2023-04-20T01:05:09.534Z,12.17
2023-04-20T01:07:37.926Z,9.97
2023-04-20T01:10:07.203Z,4.53
2023-04-20T01:12:36.762Z,6.03
2023-04-20T01:15:05.928Z,6.43
2023-04-20T01:17:34.849Z,3.93
2023-04-20T01:20:02.702Z,8.97
2023-04-20T01:22:32.295Z,5.03
2023-04-20T01:25:00.110Z,5.63
2023-04-20T01:27:28.003Z,5.33
2023-04-20T01:29:56.248Z,6.00
2023-04-20T01:32:24.334Z,6.50
2023-04-20T01:34:52.612Z,8.60
2023-04-20T01:37:20.551Z,6.43
2023-04-20T01:39:49.847Z,4.07
2023-04-20T01:42:18.070Z,5.93
2023-04-20T01:44:46.047Z,5.77
2023-04-20T01:47:13.885Z,7.17
2023-04-20T01:49:41.942Z,5.83
2023-04-20T01:52:10.758Z,8.50
2023-04-20T01:54:38.610Z,4.57
2023-04-20T01:57:07.880Z,6.53
2023-04-20T01:59:36.052Z,9.13
2023-04-20T02:02:04.233Z,4.50
2023-04-20T02:04:32.156Z,9.30
2023-04-20T02:07:00.332Z,6.10
2023-04-20T02:09:28.211Z,7.13
2023-04-20T02:11:56.893Z,5.70
2023-04-20T02:14:26.843Z,8.47
2023-04-20T02:16:55.033Z,6.77
2023-04-20T02:19:22.905Z,9.20
2023-04-20T02:21:50.742Z,10.60
2023-04-20T02:24:18.716Z,5.07
2023-04-20T02:26:46.491Z,5.77
2023-04-20T02:29:14.534Z,6.03
2023-04-20T02:31:44.052Z,8.97
2023-04-20T02:34:11.947Z,4.10
2023-04-20T02:36:40.018Z,5.97
2023-04-20T02:39:08.016Z,7.37
2023-04-20T02:41:35.869Z,6.07
2023-04-20T02:44:03.964Z,6.00
2023-04-20T02:46:33.036Z,6.90
2023-04-20T02:49:03.451Z,7.63
2023-04-20T02:51:31.551Z,6.37
2023-04-20T02:53:59.399Z,9.27
2023-04-20T02:56:27.158Z,8.33
2023-04-20T02:58:55.515Z,5.73
2023-04-20T03:01:23.467Z,8.53
2023-04-20T03:03:51.896Z,5.00
2023-04-20T03:06:21.668Z,6.17
2023-04-20T03:08:49.684Z,7.13
2023-04-20T03:11:17.423Z,6.93
2023-04-20T03:13:45.605Z,7.13
2023-04-20T03:16:13.441Z,7.13
2023-04-20T03:18:41.406Z,6.20
2023-04-20T03:21:09.529Z,7.20
2023-04-20T03:23:38.941Z,6.17
2023-04-20T03:26:07.243Z,6.13
2023-04-20T03:28:35.415Z,7.13
2023-04-20T03:31:03.459Z,9.70
2023-04-20T03:33:31.598Z,9.33
2023-04-20T03:35:59.592Z,7.20
2023-04-20T03:38:27.687Z,8.40
2023-04-20T03:40:56.921Z,10.57
2023-04-20T03:43:25.074Z,11.30
2023-04-20T03:45:52.913Z,13.20
2023-04-20T03:48:20.727Z,7.73
2023-04-20T03:50:48.692Z,6.97
2023-04-20T03:53:16.490Z,9.23
2023-04-20T03:55:44.232Z,9.37
2023-04-20T03:58:13.700Z,7.50
2023-04-20T04:00:41.800Z,8.73
2023-04-20T04:03:09.935Z,7.13
2023-04-20T04:05:38.353Z,8.23
2023-04-20T04:08:06.623Z,7.83
2023-04-20T04:10:34.425Z,8.93
2023-04-20T04:13:02.531Z,11.23
2023-04-20T04:15:32.162Z,11.50
2023-04-20T04:18:00.083Z,6.53
2023-04-20T04:20:28.057Z,8.27
2023-04-20T04:22:56.011Z,10.50
2023-04-20T04:25:24.406Z,8.87
2023-04-20T04:27:53.191Z,9.00
2023-04-20T04:30:21.371Z,7.93
2023-04-20T04:32:50.938Z,6.90
2023-04-20T04:35:19.171Z,9.63
2023-04-20T04:37:47.576Z,8.10
2023-04-20T04:40:16.214Z,14.50
2023-04-20T04:42:45.601Z,12.17
2023-04-20T04:45:13.681Z,14.80
2023-04-20T04:47:42.282Z,10.20
2023-04-20T04:50:13.097Z,13.30
2023-04-20T04:52:41.268Z,9.13
2023-04-20T04:55:10.067Z,8.73
2023-04-20T04:57:38.792Z,9.97
2023-04-20T05:00:09.716Z,11.80
2023-04-20T05:02:37.642Z,10.97
2023-04-20T05:05:09.452Z,12.17
2023-04-20T05:07:40.301Z,7.43
2023-04-20T05:10:09.774Z,9.53
2023-04-20T05:12:37.687Z,8.97
2023-04-20T05:15:06.575Z,8.77
2023-04-20T05:17:35.630Z,12.07
2023-04-20T05:20:04.191Z,8.87
2023-04-20T05:22:33.164Z,9.30
2023-04-20T05:25:02.843Z,8.30
2023-04-20T05:27:30.778Z,7.33
2023-04-20T05:30:09.492Z,8.07
2023-04-20T05:32:47.716Z,8.30
2023-04-20T05:35:17.231Z,7.10
2023-04-20T05:37:45.099Z,6.93
2023-04-20T05:40:15.243Z,8.77
2023-04-20T05:42:43.040Z,9.07
2023-04-20T05:45:12.759Z,9.87
2023-04-20T05:47:40.624Z,6.87
2023-04-20T05:50:10.186Z,8.50
2023-04-20T05:52:38.170Z,8.97
2023-04-20T05:55:06.770Z,9.47
2023-04-20T05:57:41.856Z,8.83
2023-04-20T06:00:11.673Z,11.47
2023-04-20T06:02:39.637Z,9.33
2023-04-20T06:05:09.422Z,9.83
2023-04-20T06:07:37.334Z,7.90
2023-04-20T06:10:06.195Z,8.23
2023-04-20T06:12:35.350Z,7.40
2023-04-20T06:15:04.806Z,8.30
2023-04-20T06:17:32.516Z,6.80
2023-04-20T06:20:00.277Z,6.73
2023-04-20T06:22:28.196Z,7.73
2023-04-20T06:24:56.001Z,7.23
2023-04-20T06:27:23.724Z,6.20
2023-04-20T06:29:53.374Z,7.63
2023-04-20T06:32:21.150Z,13.53
2023-04-20T06:34:48.952Z,7.50
2023-04-20T06:37:16.682Z,10.67
2023-04-20T06:39:44.429Z,7.47
2023-04-20T06:42:12.164Z,8.27
2023-04-20T06:44:39.983Z,8.33
2023-04-20T06:47:09.244Z,7.97
2023-04-20T06:49:39.250Z,8.90
2023-04-20T06:52:07.082Z,7.27
2023-04-20T06:54:34.878Z,8.40
2023-04-20T06:57:02.598Z,6.47
2023-04-20T06:59:30.406Z,6.73
2023-04-20T07:01:58.349Z,7.07
2023-04-20T07:04:27.659Z,8.87
2023-04-20T07:06:55.466Z,6.97
2023-04-20T07:09:23.422Z,6.17
2023-04-20T07:11:51.156Z,9.17
2023-04-20T07:14:18.975Z,6.43
2023-04-20T07:16:46.881Z,6.30
2023-04-20T07:19:14.743Z,7.50
2023-04-20T07:21:43.856Z,7.10
2023-04-20T07:24:11.647Z,5.93
2023-04-20T07:26:39.516Z,7.83
2023-04-20T07:29:07.289Z,9.50
2023-04-20T07:31:35.536Z,6.20
2023-04-20T07:34:03.525Z,7.73
2023-04-20T07:36:31.275Z,9.40
2023-04-20T07:39:00.421Z,10.07
2023-04-20T07:41:28.261Z,6.53
2023-04-20T07:43:56.010Z,8.83
2023-04-20T07:46:24.296Z,9.27
2023-04-20T07:48:52.170Z,6.50
2023-04-20T07:51:19.888Z,8.57
2023-04-20T07:53:47.937Z,10.03
2023-04-20T07:56:17.064Z,9.73
2023-04-20T07:58:44.852Z,10.50
2023-04-20T08:01:12.621Z,8.10
2023-04-20T08:03:41.770Z,8.20
2023-04-20T08:06:10.518Z,10.70
2023-04-20T08:08:38.271Z,9.77
2023-04-20T08:11:08.094Z,6.77
2023-04-20T08:13:37.862Z,9.37
2023-04-20T08:16:06.197Z,7.97
2023-04-20T08:18:34.048Z,10.63
2023-04-20T08:21:01.927Z,10.47
2023-04-20T08:23:29.804Z,10.97
2023-04-20T08:25:58.149Z,12.27
2023-04-20T08:28:33.450Z,8.80
2023-04-20T08:31:03.318Z,9.20
2023-04-20T08:33:31.145Z,7.90
2023-04-20T08:35:58.923Z,8.87
2023-04-20T08:38:33.731Z,8.40
2023-04-20T08:41:02.490Z,7.77
2023-04-20T08:43:30.457Z,9.00
2023-04-20T08:46:00.088Z,8.17
2023-04-20T08:48:35.466Z,9.60
2023-04-20T08:51:03.937Z,7.43
2023-04-20T08:53:31.979Z,6.57
2023-04-20T08:55:59.897Z,6.17
2023-04-20T08:58:32.229Z,7.03
2023-04-20T09:01:00.731Z,11.50
2023-04-20T09:03:37.224Z,8.30
2023-04-20T09:06:06.017Z,8.23
2023-04-20T09:08:37.780Z,8.67
2023-04-20T09:11:05.689Z,7.43
2023-04-20T09:13:33.603Z,7.83
2023-04-20T09:16:11.167Z,7.40
2023-04-20T09:18:40.616Z,7.90
2023-04-20T09:21:12.429Z,8.43
2023-04-20T09:23:40.311Z,6.80
2023-04-20T09:26:08.072Z,7.10
2023-04-20T09:28:40.065Z,8.07
2023-04-20T09:31:07.801Z,6.90
2023-04-20T09:33:36.784Z,9.30
2023-04-20T09:36:06.949Z,6.50
2023-04-20T09:38:34.764Z,9.67
2023-04-20T09:41:02.861Z,8.00
2023-04-20T09:43:31.410Z,7.73
2023-04-20T09:45:59.362Z,6.10
2023-04-20T09:48:27.205Z,7.67
2023-04-20T09:50:55.188Z,6.93
2023-04-20T09:53:24.501Z,7.50
2023-04-20T09:55:52.454Z,8.47
2023-04-20T09:58:21.388Z,7.33
2023-04-20T10:00:49.681Z,6.37
2023-04-20T10:03:19.179Z,8.53
2023-04-20T10:05:47.139Z,9.60
2023-04-20T10:08:14.967Z,7.23
2023-04-20T10:10:48.617Z,11.70
2023-04-20T10:13:19.436Z,6.67
2023-04-20T10:15:47.609Z,7.73
2023-04-20T10:18:19.982Z,10.07
2023-04-20T10:20:48.282Z,7.60
2023-04-20T10:23:18.482Z,8.43
2023-04-20T10:25:58.328Z,11.20
2023-04-20T10:28:26.253Z,8.50
2023-04-20T10:30:54.580Z,5.47
2023-04-20T10:33:22.858Z,6.67
2023-04-20T10:35:54.666Z,7.67
2023-04-20T10:38:30.534Z,5.47
2023-04-20T10:41:07.145Z,7.20
2023-04-20T10:43:35.532Z,8.80
2023-04-20T10:46:03.350Z,5.60
2023-04-20T10:48:31.400Z,13.40
2023-04-20T10:50:59.195Z,9.37
2023-04-20T10:53:27.245Z,6.73
2023-04-20T10:56:06.051Z,7.47
2023-04-20T10:58:33.876Z,5.37
2023-04-20T11:01:03.306Z,6.30
2023-04-20T11:03:32.092Z,6.53
2023-04-20T11:06:01.662Z,7.90
2023-04-20T11:08:42.274Z,6.37
2023-04-20T11:11:20.962Z,7.30
2023-04-20T11:13:49.032Z,7.30
2023-04-20T11:16:18.814Z,7.77
2023-04-20T11:18:51.952Z,6.37
2023-04-20T11:21:19.931Z,7.13
2023-04-20T11:23:47.941Z,4.90
2023-04-20T11:26:15.924Z,4.80
2023-04-20T11:28:55.574Z,4.93
2023-04-20T11:31:24.333Z,5.10
2023-04-20T11:33:52.412Z,5.30
2023-04-20T11:36:21.496Z,8.47
2023-04-20T11:38:49.793Z,7.37
2023-04-20T11:41:18.352Z,4.73
2023-04-20T11:43:46.641Z,5.03
2023-04-20T11:46:18.015Z,4.33
2023-04-20T11:48:46.404Z,4.40
2023-04-20T11:51:14.685Z,4.27
2023-04-20T11:53:42.701Z,7.03
2023-04-20T11:56:10.727Z,4.20
2023-04-20T11:58:38.663Z,5.23
2023-04-20T12:01:06.849Z,7.33
2023-04-20T12:03:37.068Z,4.40
2023-04-20T12:06:05.418Z,6.33
2023-04-20T12:08:33.283Z,6.30
2023-04-20T12:11:01.339Z,6.47
2023-04-20T12:13:29.360Z,5.43
2023-04-20T12:15:57.171Z,7.50
2023-04-20T12:18:25.365Z,7.47
2023-04-20T12:20:54.941Z,4.90
2023-04-20T12:23:22.903Z,6.07
2023-04-20T12:25:50.717Z,5.17
2023-04-20T12:28:19.277Z,3.53
2023-04-20T12:30:47.414Z,4.30
2023-04-20T12:33:15.267Z,4.53
2023-04-20T12:35:43.317Z,5.07
2023-04-20T12:38:14.520Z,5.57
2023-04-20T12:40:43.073Z,5.43
2023-04-20T12:43:11.082Z,5.20
2023-04-20T12:45:38.951Z,5.67
2023-04-20T12:48:07.190Z,6.23
2023-04-20T12:50:35.313Z,4.60
2023-04-20T12:53:03.299Z,7.17
2023-04-20T12:55:32.622Z,5.40
2023-04-20T12:58:00.801Z,5.10
2023-04-20T13:00:28.695Z,4.87
2023-04-20T13:02:56.657Z,5.57
2023-04-20T13:05:24.963Z,4.80
2023-04-20T13:07:53.004Z,4.93
2023-04-20T13:10:20.787Z,7.03
2023-04-20T13:12:51.707Z,4.23
2023-04-20T13:15:31.725Z,4.33
2023-04-20T13:18:06.566Z,7.20
2023-04-20T13:20:34.678Z,4.47
2023-04-20T13:23:02.587Z,3.80
2023-04-20T13:25:32.791Z,4.53
2023-04-20T13:28:03.605Z,3.83
2023-04-20T13:30:31.777Z,4.37
2023-04-20T13:32:59.771Z,4.07
2023-04-20T13:35:27.800Z,6.47
2023-04-20T13:37:56.169Z,4.07
2023-04-20T13:40:23.984Z,4.50
2023-04-20T13:42:51.728Z,5.27
2023-04-20T13:45:21.110Z,3.97
2023-04-20T13:47:49.060Z,3.70
2023-04-20T13:50:16.849Z,4.67
2023-04-20T13:52:45.050Z,5.63
2023-04-20T13:55:12.893Z,4.20
2023-04-20T13:57:40.910Z,5.60
2023-04-20T14:00:10.204Z,4.00
2023-04-20T14:02:39.716Z,4.40
2023-04-20T14:05:08.646Z,4.53
2023-04-20T14:07:36.396Z,4.30
2023-04-20T14:10:04.957Z,5.07
2023-04-20T14:12:33.878Z,4.27
2023-04-20T14:15:02.489Z,5.20
2023-04-20T14:17:31.759Z,5.77
2023-04-20T14:20:01.450Z,4.30
2023-04-20T14:22:34.243Z,4.10
2023-04-20T14:25:02.378Z,4.47
2023-04-20T14:27:30.368Z,4.30
2023-04-20T14:29:58.251Z,4.60
2023-04-20T14:32:26.491Z,6.33
2023-04-20T14:34:54.609Z,5.60
2023-04-20T14:37:24.933Z,4.33
2023-04-20T14:39:52.696Z,5.67
2023-04-20T14:42:21.294Z,5.80
2023-04-20T14:44:49.605Z,6.47
2023-04-20T14:47:17.671Z,4.60
2023-04-20T14:49:45.571Z,5.23
2023-04-20T14:52:13.334Z,5.83
2023-04-20T14:54:42.678Z,8.63
2023-04-20T14:57:11.026Z,5.67
2023-04-20T14:59:41.365Z,4.73
2023-04-20T15:02:09.383Z,4.57
2023-04-20T15:04:37.517Z,4.47
2023-04-20T15:07:06.034Z,4.37
2023-04-20T15:09:34.039Z,4.43
2023-04-20T15:12:04.018Z,5.43
2023-04-20T15:14:31.823Z,4.93
2023-04-20T15:17:00.014Z,4.67
2023-04-20T15:19:27.949Z,5.13
2023-04-20T15:21:55.693Z,5.07
2023-04-20T15:24:23.973Z,4.43
2023-04-20T15:26:51.859Z,4.00
2023-04-20T15:29:21.432Z,4.87
2023-04-20T15:31:50.510Z,4.53
2023-04-20T15:34:18.914Z,5.77
2023-04-20T15:36:47.153Z,4.67
2023-04-20T15:39:15.052Z,3.90
2023-04-20T15:41:43.606Z,4.17
2023-04-20T15:44:11.441Z,4.27
2023-04-20T15:46:41.022Z,4.60
2023-04-20T15:49:08.940Z,4.93
2023-04-20T15:51:37.341Z,5.33
2023-04-20T15:54:05.664Z,6.90
2023-04-20T15:56:33.521Z,5.83
2023-04-20T15:59:01.787Z,6.20
2023-04-20T16:01:29.813Z,4.73
2023-04-20T16:03:59.383Z,8.03
2023-04-20T16:06:27.794Z,6.23
2023-04-20T16:08:57.304Z,5.50
2023-04-20T16:11:25.068Z,5.33
2023-04-20T16:13:55.632Z,5.50
2023-04-20T16:16:23.715Z,5.03
2023-04-20T16:18:52.230Z,5.17
2023-04-20T16:21:22.496Z,4.83
2023-04-20T16:23:53.285Z,7.47
2023-04-20T16:26:21.196Z,6.50
2023-04-20T16:28:49.422Z,4.90
2023-04-20T16:31:17.797Z,6.23
2023-04-20T16:33:46.034Z,6.67
2023-04-20T16:36:16.435Z,7.50
2023-04-20T16:38:45.691Z,7.80
2023-04-20T16:41:14.976Z,7.80
2023-04-20T16:43:43.026Z,7.90
2023-04-20T16:46:13.477Z,6.50
2023-04-20T16:48:41.957Z,6.10
2023-04-20T16:51:09.865Z,10.77
2023-04-20T16:53:37.922Z,6.20
2023-04-20T16:56:08.222Z,7.60
2023-04-20T16:58:37.629Z,7.43
2023-04-20T17:01:06.265Z,6.10
2023-04-20T17:03:34.508Z,5.37
2023-04-20T17:06:07.766Z,7.03
2023-04-20T17:08:37.548Z,5.53
2023-04-20T17:11:07.215Z,6.50
2023-04-20T17:13:35.393Z,5.70
2023-04-20T17:16:03.600Z,6.60
2023-04-20T17:18:34.274Z,8.30
2023-04-20T17:21:02.994Z,5.67
2023-04-20T17:23:31.047Z,8.90
2023-04-20T17:25:59.370Z,6.93
2023-04-20T17:28:28.668Z,6.10
2023-04-20T17:30:56.637Z,5.73
2023-04-20T17:33:24.433Z,7.00
2023-04-20T17:35:52.452Z,6.00
2023-04-20T17:38:20.216Z,6.60
2023-04-20T17:40:48.111Z,7.33
2023-04-20T17:43:16.008Z,6.40
2023-04-20T17:45:45.358Z,19.83
2023-04-20T17:48:13.166Z,9.03
2023-04-20T17:50:40.949Z,6.27
2023-04-20T17:53:08.666Z,7.30
2023-04-20T17:55:36.569Z,7.03
2023-04-20T17:58:04.331Z,8.37
2023-04-20T18:00:32.367Z,10.57
2023-04-20T18:03:01.718Z,8.60
2023-04-20T18:05:29.642Z,7.93
2023-04-20T18:07:57.421Z,9.53
2023-04-20T18:10:25.183Z,9.30
2023-04-20T18:12:53.819Z,7.47
2023-04-20T18:15:21.852Z,8.63
2023-04-20T18:17:50.329Z,7.70
2023-04-20T18:20:19.534Z,8.90
2023-04-20T18:22:50.297Z,8.80
2023-04-20T18:25:18.935Z,13.33
2023-04-20T18:27:46.856Z,9.10
2023-04-20T18:30:14.979Z,9.63
2023-04-20T18:32:43.241Z,8.87
2023-04-20T18:35:11.454Z,10.97
2023-04-20T18:37:40.594Z,11.60
2023-04-20T18:40:09.659Z,9.37
2023-04-20T18:42:37.459Z,8.63
2023-04-20T18:45:06.144Z,9.10
2023-04-20T18:47:34.712Z,12.00
2023-04-20T18:50:02.568Z,10.60
2023-04-20T18:52:33.170Z,10.57
2023-04-20T18:55:02.694Z,9.23
2023-04-20T18:57:30.582Z,9.57
2023-04-20T18:59:58.324Z,12.23
2023-04-20T19:02:26.309Z,10.70
2023-04-20T19:04:54.182Z,11.07
2023-04-20T19:07:22.004Z,14.27
2023-04-20T19:09:49.838Z,11.57
2023-04-20T19:12:19.108Z,11.33
2023-04-20T19:14:49.120Z,16.00
2023-04-20T19:17:17.284Z,13.83
2023-04-20T19:19:45.689Z,13.03
2023-04-20T19:22:13.450Z,14.33
2023-04-20T19:24:41.229Z,14.27
2023-04-20T19:27:09.124Z,13.70
2023-04-20T19:29:38.214Z,14.27
2023-04-20T19:32:06.445Z,13.97
2023-04-20T19:34:34.223Z,15.43
2023-04-20T19:37:01.982Z,14.03
2023-04-20T19:39:30.216Z,12.87
2023-04-20T19:41:58.494Z,13.43
2023-04-20T19:44:26.458Z,13.97
2023-04-20T19:46:55.599Z,12.13
2023-04-20T19:49:23.598Z,13.17
2023-04-20T19:51:51.356Z,14.33
2023-04-20T19:54:19.109Z,16.73
2023-04-20T19:56:49.830Z,13.10
2023-04-20T19:59:17.995Z,12.50
2023-04-20T20:01:46.187Z,15.00
2023-04-20T20:04:15.533Z,14.33
2023-04-20T20:06:44.010Z,12.80
2023-04-20T20:09:11.799Z,14.63
2023-04-20T20:11:39.548Z,15.80
2023-04-20T20:14:07.701Z,13.87
2023-04-20T20:16:36.118Z,12.30
2023-04-20T20:19:04.029Z,12.93
2023-04-20T20:21:33.212Z,13.87
2023-04-20T20:24:00.960Z,14.17
2023-04-20T20:26:28.964Z,13.30
2023-04-20T20:28:56.701Z,13.13
2023-04-20T20:31:24.660Z,13.73
2023-04-20T20:33:52.481Z,15.50
2023-04-20T20:36:20.381Z,14.20
2023-04-20T20:38:49.500Z,16.00
2023-04-20T20:41:18.377Z,15.03
2023-04-20T20:43:46.258Z,14.53
2023-04-20T20:46:14.270Z,14.00
2023-04-20T20:48:42.102Z,14.80
2023-04-20T20:51:09.842Z,16.70
2023-04-20T20:53:37.606Z,13.13
2023-04-20T20:56:07.100Z,15.03
2023-04-20T20:58:35.025Z,15.30
2023-04-20T21:01:02.876Z,13.27
2023-04-20T21:03:31.370Z,14.47
2023-04-20T21:05:59.270Z,15.83
2023-04-20T21:08:27.091Z,14.50
2023-04-20T21:10:54.851Z,12.60
2023-04-20T21:13:23.992Z,11.77
2023-04-20T21:15:51.938Z,11.60
2023-04-20T21:18:19.825Z,12.97
2023-04-20T21:20:47.551Z,16.67
2023-04-20T21:23:15.451Z,11.57
2023-04-20T21:25:43.327Z,14.60
2023-04-20T21:28:11.065Z,13.53
2023-04-20T21:30:40.310Z,14.27
2023-04-20T21:33:08.143Z,14.90
2023-04-20T21:35:36.079Z,15.07
2023-04-20T21:38:04.755Z,15.03
2023-04-20T21:40:34.257Z,15.50
2023-04-20T21:43:02.560Z,15.37
2023-04-20T21:45:30.631Z,15.53
2023-04-20T21:47:59.993Z,15.03
2023-04-20T21:50:28.596Z,15.60
2023-04-20T21:52:56.980Z,17.47
2023-04-20T21:55:25.084Z,19.17
2023-04-20T21:57:52.834Z,17.70
2023-04-20T22:00:21.180Z,17.37
2023-04-20T22:02:50.331Z,16.77
2023-04-20T22:05:20.136Z,17.00
2023-04-20T22:07:47.927Z,16.97
2023-04-20T22:10:16.229Z,16.97
2023-04-20T22:12:44.341Z,17.57
2023-04-20T22:15:14.698Z,17.50
2023-04-20T22:17:45.637Z,19.17
2023-04-20T22:20:14.172Z,19.50
2023-04-20T22:22:43.610Z,20.33
2023-04-20T22:25:11.651Z,18.50
2023-04-20T22:27:39.952Z,20.77
2023-04-20T22:30:09.835Z,17.20
2023-04-20T22:32:37.952Z,20.67
2023-04-20T22:35:07.208Z,20.43
2023-04-20T22:37:35.788Z,19.03
2023-04-20T22:40:07.596Z,20.17
2023-04-20T22:42:36.080Z,21.77
2023-04-20T22:45:04.693Z,20.63
2023-04-20T22:47:32.609Z,23.57
2023-04-20T22:50:01.727Z,22.50
2023-04-20T22:52:30.940Z,22.83
2023-04-20T22:54:58.964Z,19.93
2023-04-20T22:57:28.176Z,22.23
2023-04-20T22:59:55.993Z,20.77
2023-04-20T23:02:24.252Z,21.23
2023-04-20T23:04:52.714Z,20.23
2023-04-20T23:07:21.652Z,20.33
2023-04-20T23:09:49.492Z,21.67
2023-04-20T23:12:18.316Z,23.20
2023-04-20T23:14:48.081Z,23.73
2023-04-20T23:17:16.182Z,22.10
2023-04-20T23:19:43.919Z,22.97
2023-04-20T23:22:12.076Z,21.83
2023-04-20T23:24:39.931Z,21.63
2023-04-20T23:27:07.738Z,21.90
2023-04-20T23:29:36.120Z,25.47
2023-04-20T23:32:06.010Z,23.57
2023-04-20T23:34:33.840Z,24.30
2023-04-20T23:37:02.149Z,25.27
2023-04-20T23:39:30.265Z,21.23
2023-04-20T23:41:58.073Z,23.40
2023-04-20T23:44:26.335Z,24.80
2023-04-20T23:46:54.187Z,25.90
2023-04-20T23:49:23.346Z,24.80
2023-04-20T23:51:51.557Z,25.23
2023-04-20T23:54:19.871Z,24.17
2023-04-20T23:56:47.963Z,26.60
2023-04-20T23:59:16.357Z,25.43
